createdAt,value
2023-05-08T00:02:06.894Z,9.68
2023-05-08T00:04:34.016Z,9.02
2023-05-08T00:07:01.151Z,10.00
2023-05-08T00:09:28.285Z,8.55
2023-05-08T00:11:55.316Z,8.98
2023-05-08T00:14:22.341Z,9.15
2023-05-08T00:16:49.427Z,8.23
2023-05-08T00:19:16.534Z,8.57
2023-05-08T00:21:43.573Z,8.52
2023-05-08T00:24:10.662Z,9.95
2023-05-08T00:26:37.767Z,8.63
2023-05-08T00:29:06.581Z,9.10
2023-05-08T00:31:34.113Z,8.80
2023-05-08T00:34:01.238Z,8.25
2023-05-08T00:36:28.478Z,9.68
2023-05-08T00:38:55.736Z,8.80
2023-05-08T00:41:22.853Z,9.48
2023-05-08T00:43:49.967Z,10.30
2023-05-08T00:46:17.442Z,9.73
2023-05-08T00:48:45.439Z,9.25
2023-05-08T00:51:13.126Z,9.90
2023-05-08T00:53:43.048Z,9.35
2023-05-08T00:56:12.872Z,8.88
2023-05-08T00:58:41.208Z,9.15
2023-05-08T01:01:08.613Z,8.98
2023-05-08T01:03:36.756Z,8.45
2023-05-08T01:06:04.469Z,9.30
2023-05-08T01:08:32.157Z,9.68
2023-05-08T01:11:23.561Z,9.57
2023-05-08T01:14:06.025Z,10.80
2023-05-08T01:16:45.277Z,11.32
2023-05-08T01:19:39.292Z,10.48
2023-05-08T01:22:06.248Z,10.07
2023-05-08T01:25:21.600Z,9.25
2023-05-08T01:28:18.144Z,10.38
2023-05-08T01:31:27.380Z,9.55
2023-05-08T01:34:05.012Z,9.27
2023-05-08T01:37:05.517Z,9.48
2023-05-08T01:39:59.040Z,9.65
2023-05-08T01:42:29.056Z,9.00
2023-05-08T01:45:20.041Z,9.05
2023-05-08T01:47:55.791Z,9.32
2023-05-08T01:50:31.158Z,9.23
2023-05-08T01:53:08.077Z,9.30
2023-05-08T01:55:37.657Z,10.20
2023-05-08T01:58:11.027Z,8.35
2023-05-08T02:00:41.581Z,8.90
2023-05-08T02:03:11.533Z,9.27
2023-05-08T02:05:40.532Z,9.70
2023-05-08T02:08:09.833Z,9.18
2023-05-08T02:10:38.070Z,9.60
2023-05-08T02:13:06.540Z,9.83
2023-05-08T02:15:36.734Z,9.10
2023-05-08T02:18:08.891Z,8.68
2023-05-08T02:20:37.652Z,9.60
2023-05-08T02:23:05.410Z,9.50
2023-05-08T02:25:33.476Z,8.80
2023-05-08T02:28:01.205Z,10.47
2023-05-08T02:30:29.415Z,9.65
2023-05-08T02:33:00.571Z,9.43
2023-05-08T02:35:31.001Z,8.90
2023-05-08T02:37:59.365Z,9.18
2023-05-08T02:40:29.609Z,9.15
2023-05-08T02:42:57.341Z,9.50
2023-05-08T02:45:28.909Z,9.97
2023-05-08T02:48:02.218Z,8.10
2023-05-08T02:50:50.911Z,8.93
2023-05-08T02:53:26.856Z,9.10
2023-05-08T02:56:00.653Z,10.13
2023-05-08T02:58:46.070Z,11.30
2023-05-08T03:01:27.383Z,10.03
2023-05-08T03:04:31.973Z,9.43
2023-05-08T03:07:01.807Z,10.20
2023-05-08T03:09:38.746Z,10.43
2023-05-08T03:12:13.201Z,9.10
2023-05-08T03:14:47.156Z,9.13
2023-05-08T03:17:17.170Z,9.37
2023-05-08T03:19:49.809Z,9.43
2023-05-08T03:22:20.514Z,10.07
2023-05-08T03:24:49.500Z,9.93
2023-05-08T03:27:17.867Z,9.57
2023-05-08T03:29:46.341Z,11.60
2023-05-08T03:32:14.939Z,10.13
2023-05-08T03:34:42.443Z,9.52
2023-05-08T03:37:09.504Z,10.50
2023-05-08T03:39:37.143Z,11.07
2023-05-08T03:42:05.027Z,10.97
2023-05-08T03:44:33.436Z,10.67
2023-05-08T03:47:01.108Z,10.53
2023-05-08T03:49:31.367Z,9.60
2023-05-08T03:51:59.506Z,9.43
2023-05-08T03:54:28.638Z,9.80
2023-05-08T03:56:56.345Z,10.57
2023-05-08T03:59:50.157Z,10.10
2023-05-08T04:02:28.611Z,10.83
2023-05-08T04:05:04.817Z,10.47
2023-05-08T04:07:53.932Z,11.23
2023-05-08T04:10:33.360Z,11.37
2023-05-08T04:13:08.739Z,9.83
2023-05-08T04:15:56.817Z,10.23
2023-05-08T04:18:30.203Z,9.97
2023-05-08T04:21:01.789Z,10.80
2023-05-08T04:23:30.448Z,10.47
2023-05-08T04:25:59.953Z,9.73
2023-05-08T04:28:27.543Z,11.30
2023-05-08T04:30:56.780Z,10.57
2023-05-08T04:33:25.142Z,11.90
2023-05-08T04:35:52.878Z,10.33
2023-05-08T04:38:19.980Z,10.07
2023-05-08T04:40:47.251Z,10.17
2023-05-08T04:43:14.360Z,10.37
2023-05-08T04:45:41.521Z,11.03
2023-05-08T04:48:08.872Z,11.63
2023-05-08T04:50:36.042Z,11.00
2023-05-08T04:53:03.155Z,11.83
2023-05-08T04:55:30.334Z,10.73
2023-05-08T04:57:57.700Z,11.53
2023-05-08T05:00:25.068Z,12.10
2023-05-08T05:02:52.788Z,13.00
2023-05-08T05:05:21.215Z,10.87
2023-05-08T05:07:48.288Z,11.50
2023-05-08T05:10:15.936Z,11.53
2023-05-08T05:12:43.113Z,11.07
2023-05-08T05:15:10.837Z,10.27
2023-05-08T05:17:38.976Z,11.23
2023-05-08T05:20:08.814Z,11.63
2023-05-08T05:22:36.285Z,10.70
2023-05-08T05:25:04.078Z,12.27
2023-05-08T05:27:31.424Z,11.63
2023-05-08T05:29:59.047Z,11.90
2023-05-08T05:32:27.207Z,12.83
2023-05-08T05:34:54.961Z,11.37
2023-05-08T05:37:22.321Z,12.50
2023-05-08T05:39:49.550Z,14.20
2023-05-08T05:42:16.706Z,10.60
2023-05-08T05:44:43.781Z,10.63
2023-05-08T05:47:11.762Z,12.57
2023-05-08T05:49:46.815Z,10.77
2023-05-08T05:52:14.722Z,11.40
2023-05-08T05:54:42.659Z,11.53
2023-05-08T05:57:10.124Z,12.43
2023-05-08T05:59:37.469Z,11.63
2023-05-08T06:02:04.768Z,10.63
2023-05-08T06:04:32.026Z,12.70
2023-05-08T06:06:59.145Z,11.00
2023-05-08T06:09:26.156Z,11.63
2023-05-08T06:11:53.176Z,13.53
2023-05-08T06:14:20.517Z,13.87
2023-05-08T06:16:47.933Z,14.20
2023-05-08T06:19:15.910Z,12.23
2023-05-08T06:21:43.008Z,11.83
2023-05-08T06:24:10.124Z,13.40
2023-05-08T06:26:37.420Z,13.60
2023-05-08T06:29:04.472Z,11.40
2023-05-08T06:31:31.644Z,12.77
2023-05-08T06:33:58.809Z,12.70
2023-05-08T06:36:27.260Z,12.83
2023-05-08T06:38:54.396Z,12.70
2023-05-08T06:41:21.877Z,14.93
2023-05-08T06:43:48.986Z,13.37
2023-05-08T06:46:16.316Z,11.43
2023-05-08T06:48:43.428Z,13.33
2023-05-08T06:51:10.648Z,11.93
2023-05-08T06:53:37.925Z,13.40
2023-05-08T06:56:05.910Z,14.43
2023-05-08T06:58:33.086Z,13.90
2023-05-08T07:01:01.851Z,11.37
2023-05-08T07:03:28.967Z,12.10
2023-05-08T07:05:56.395Z,11.17
2023-05-08T07:08:23.447Z,12.30
2023-05-08T07:10:50.607Z,11.67
2023-05-08T07:13:21.763Z,12.63
2023-05-08T07:15:49.159Z,11.83
2023-05-08T07:18:16.240Z,15.60
2023-05-08T07:20:43.281Z,11.20
2023-05-08T07:23:10.362Z,12.17
2023-05-08T07:25:37.418Z,12.33
2023-05-08T07:28:04.711Z,13.23
2023-05-08T07:30:31.785Z,15.67
2023-05-08T07:32:58.888Z,12.83
2023-05-08T07:35:26.118Z,12.40
2023-05-08T07:37:53.257Z,12.80
2023-05-08T07:40:20.350Z,12.63
2023-05-08T07:42:47.382Z,13.43
2023-05-08T07:45:14.771Z,10.77
2023-05-08T07:47:56.732Z,12.20
2023-05-08T07:50:25.224Z,12.73
2023-05-08T07:52:53.076Z,11.67
2023-05-08T07:55:20.692Z,11.90
2023-05-08T07:57:47.809Z,11.37
2023-05-08T08:00:15.833Z,11.80
2023-05-08T08:02:44.870Z,11.23
2023-05-08T08:05:12.682Z,12.60
2023-05-08T08:07:40.024Z,11.77
2023-05-08T08:10:08.012Z,11.47
2023-05-08T08:12:35.164Z,11.10
2023-05-08T08:15:02.270Z,9.90
2023-05-08T08:17:29.653Z,12.67
2023-05-08T08:19:57.298Z,11.50
2023-05-08T08:22:25.924Z,11.60
2023-05-08T08:24:55.890Z,10.87
2023-05-08T08:27:23.493Z,12.33
2023-05-08T08:29:52.502Z,12.63
2023-05-08T08:32:26.008Z,11.53
2023-05-08T08:34:53.224Z,11.03
2023-05-08T08:37:20.265Z,11.20
2023-05-08T08:39:48.519Z,10.50
2023-05-08T08:42:15.733Z,12.33
2023-05-08T08:44:43.050Z,11.82
2023-05-08T08:47:14.338Z,11.33
2023-05-08T08:49:47.573Z,11.83
2023-05-08T08:52:43.469Z,10.93
2023-05-08T08:55:15.262Z,10.80
2023-05-08T08:57:51.270Z,13.13
2023-05-08T09:00:21.291Z,11.18
2023-05-08T09:02:49.056Z,11.35
2023-05-08T09:05:16.301Z,10.82
2023-05-08T09:07:44.031Z,10.95
2023-05-08T09:10:15.495Z,11.02
2023-05-08T09:12:42.875Z,11.75
2023-05-08T09:15:10.266Z,10.52
2023-05-08T09:17:37.464Z,11.30
2023-05-08T09:20:05.465Z,11.98
2023-05-08T09:22:35.980Z,11.80
2023-05-08T09:25:04.053Z,12.20
2023-05-08T09:27:32.395Z,11.15
2023-05-08T09:30:07.018Z,11.63
2023-05-08T09:32:35.802Z,10.80
2023-05-08T09:35:03.606Z,11.00
2023-05-08T09:37:31.177Z,10.85
2023-05-08T09:40:13.524Z,11.25
2023-05-08T09:42:41.097Z,11.60
2023-05-08T09:45:08.698Z,10.82
2023-05-08T09:47:37.507Z,10.75
2023-05-08T09:50:07.322Z,11.95
2023-05-08T09:52:36.770Z,10.45
2023-05-08T09:55:05.724Z,10.00
2023-05-08T09:57:36.602Z,9.90
2023-05-08T10:00:13.993Z,10.75
2023-05-08T10:02:53.701Z,10.57
2023-05-08T10:05:34.600Z,10.25
2023-05-08T10:08:21.430Z,10.40
2023-05-08T10:10:48.640Z,10.05
2023-05-08T10:13:15.829Z,9.95
2023-05-08T10:15:44.232Z,10.57
2023-05-08T10:18:14.785Z,10.20
2023-05-08T10:20:45.216Z,10.35
2023-05-08T10:23:17.554Z,10.38
2023-05-08T10:25:54.749Z,11.48
2023-05-08T10:28:57.972Z,9.60
2023-05-08T10:31:35.901Z,9.55
2023-05-08T10:34:04.193Z,8.63
2023-05-08T10:36:32.524Z,10.32
2023-05-08T10:38:59.643Z,10.25
2023-05-08T10:41:27.926Z,9.77
2023-05-08T10:43:55.505Z,10.38
2023-05-08T10:47:14.073Z,9.75
2023-05-08T10:50:04.141Z,9.52
2023-05-08T10:52:57.391Z,10.35
2023-05-08T10:55:31.075Z,9.32
2023-05-08T10:58:33.147Z,10.93
2023-05-08T11:01:00.164Z,9.75
2023-05-08T11:03:32.677Z,9.48
2023-05-08T11:06:01.584Z,9.63
2023-05-08T11:08:30.136Z,9.70
2023-05-08T11:11:00.472Z,9.65
2023-05-08T11:13:33.491Z,9.15
2023-05-08T11:16:01.216Z,9.15
2023-05-08T11:18:41.768Z,10.70
2023-05-08T11:21:20.521Z,9.27
2023-05-08T11:23:57.691Z,9.43
2023-05-08T11:26:42.233Z,8.93
2023-05-08T11:29:18.602Z,9.15
2023-05-08T11:31:53.134Z,8.77
2023-05-08T11:34:42.586Z,9.38
2023-05-08T11:37:20.853Z,10.20
2023-05-08T11:39:48.519Z,11.55
2023-05-08T11:42:27.635Z,8.95
2023-05-08T11:45:06.773Z,9.27
2023-05-08T11:47:42.917Z,9.02
2023-05-08T11:50:11.800Z,8.70
2023-05-08T11:52:40.905Z,9.07
2023-05-08T11:55:09.963Z,8.90
2023-05-08T11:57:37.549Z,11.65
2023-05-08T12:00:13.937Z,9.00
2023-05-08T12:02:43.587Z,8.88
2023-05-08T12:05:11.871Z,8.85
2023-05-08T12:07:48.195Z,9.02
2023-05-08T12:10:16.786Z,8.68
2023-05-08T12:12:45.492Z,9.10
2023-05-08T12:15:15.099Z,10.50
2023-05-08T12:17:42.916Z,8.82
2023-05-08T12:20:19.585Z,9.35
2023-05-08T12:22:53.851Z,9.95
2023-05-08T12:25:21.011Z,9.27
2023-05-08T12:27:48.117Z,9.02
2023-05-08T12:30:16.508Z,9.75
2023-05-08T12:32:44.597Z,9.63
2023-05-08T12:35:12.776Z,8.65
2023-05-08T12:37:40.511Z,8.38
2023-05-08T12:40:08.950Z,7.90
2023-05-08T12:42:46.375Z,9.95
2023-05-08T12:45:28.162Z,8.50
2023-05-08T12:48:00.938Z,8.77
2023-05-08T12:50:30.619Z,8.38
2023-05-08T12:53:09.380Z,9.63
2023-05-08T12:55:37.842Z,8.95
2023-05-08T12:58:06.074Z,10.13
2023-05-08T13:00:49.650Z,8.85
2023-05-08T13:03:29.127Z,8.68
2023-05-08T13:05:57.970Z,8.52
2023-05-08T13:08:38.907Z,9.20
2023-05-08T13:11:06.947Z,8.23
2023-05-08T13:13:35.837Z,8.30
2023-05-08T13:16:07.943Z,10.32
2023-05-08T13:18:38.159Z,8.00
2023-05-08T13:21:05.486Z,8.05
2023-05-08T13:23:32.595Z,7.95
2023-05-08T13:25:59.654Z,9.05
2023-05-08T13:28:26.688Z,8.18
2023-05-08T13:30:53.721Z,8.35
2023-05-08T13:33:20.776Z,7.72
2023-05-08T13:35:47.878Z,8.52
2023-05-08T13:38:15.059Z,7.20
2023-05-08T13:40:42.122Z,8.65
2023-05-08T13:43:09.162Z,7.85
2023-05-08T13:45:36.262Z,7.13
2023-05-08T13:48:03.537Z,8.00
2023-05-08T13:50:30.782Z,7.80
2023-05-08T13:52:57.842Z,7.65
2023-05-08T13:55:24.982Z,8.25
2023-05-08T13:57:52.151Z,7.75
2023-05-08T14:00:19.614Z,8.23
2023-05-08T14:02:46.777Z,8.45
2023-05-08T14:05:14.035Z,8.10
2023-05-08T14:07:41.359Z,7.90
2023-05-08T14:10:08.759Z,8.52
2023-05-08T14:12:36.573Z,9.05
2023-05-08T14:15:05.619Z,9.30
2023-05-08T14:17:32.831Z,9.05
2023-05-08T14:20:00.373Z,7.93
2023-05-08T14:22:27.496Z,7.88
2023-05-08T14:24:54.684Z,7.88
2023-05-08T14:27:21.899Z,9.00
2023-05-08T14:29:49.376Z,8.25
2023-05-08T14:32:16.676Z,8.07
2023-05-08T14:34:43.777Z,8.60
2023-05-08T14:37:11.607Z,7.38
2023-05-08T14:39:38.722Z,7.90
2023-05-08T14:42:21.999Z,8.10
2023-05-08T14:44:49.870Z,8.25
2023-05-08T14:47:16.991Z,7.50
2023-05-08T14:49:44.072Z,8.32
2023-05-08T14:52:11.113Z,7.95
2023-05-08T14:54:38.453Z,7.90
2023-05-08T14:57:05.728Z,7.90
2023-05-08T14:59:32.862Z,7.28
2023-05-08T15:02:00.097Z,8.63
2023-05-08T15:04:27.306Z,7.43
2023-05-08T15:06:54.358Z,7.95
2023-05-08T15:09:21.389Z,8.80
2023-05-08T15:11:48.589Z,7.18
2023-05-08T15:14:15.822Z,8.27
2023-05-08T15:16:42.890Z,7.45
2023-05-08T15:19:10.028Z,8.88
2023-05-08T15:21:37.054Z,8.30
2023-05-08T15:24:04.328Z,6.72
2023-05-08T15:26:31.584Z,7.38
2023-05-08T15:28:58.636Z,9.15
2023-05-08T15:31:25.800Z,8.15
2023-05-08T15:33:52.893Z,7.68
2023-05-08T15:36:20.021Z,6.95
2023-05-08T15:38:49.177Z,7.85
2023-05-08T15:41:16.353Z,7.75
2023-05-08T15:43:45.380Z,6.82
2023-05-08T15:46:12.788Z,7.50
2023-05-08T15:48:39.948Z,7.38
2023-05-08T15:51:07.045Z,7.28
2023-05-08T15:53:34.679Z,6.90
2023-05-08T15:56:01.739Z,7.13
2023-05-08T15:58:28.841Z,8.00
2023-05-08T16:00:57.014Z,7.40
2023-05-08T16:03:24.581Z,7.32
2023-05-08T16:05:51.840Z,7.35
2023-05-08T16:08:18.939Z,6.72
2023-05-08T16:10:46.162Z,7.40
2023-05-08T16:13:13.258Z,7.30
2023-05-08T16:15:40.677Z,7.65
2023-05-08T16:18:08.267Z,6.80
2023-05-08T16:20:36.321Z,6.70
2023-05-08T16:23:03.698Z,7.15
2023-05-08T16:25:30.896Z,7.60
2023-05-08T16:27:57.935Z,8.60
2023-05-08T16:30:25.113Z,8.57
2023-05-08T16:32:52.270Z,11.10
2023-05-08T16:35:19.742Z,8.05
2023-05-08T16:37:47.014Z,7.63
2023-05-08T16:40:14.245Z,7.30
2023-05-08T16:42:41.421Z,7.10
2023-05-08T16:45:09.030Z,8.02
2023-05-08T16:47:36.587Z,7.65
2023-05-08T16:50:04.943Z,6.78
2023-05-08T16:52:33.049Z,7.05
2023-05-08T16:55:00.526Z,7.32
2023-05-08T16:57:27.772Z,8.10
2023-05-08T16:59:54.842Z,7.75
2023-05-08T17:02:22.104Z,7.30
2023-05-08T17:04:49.874Z,8.65
2023-05-08T17:07:17.573Z,9.07
2023-05-08T17:09:45.196Z,7.47
2023-05-08T17:12:12.315Z,7.90
2023-05-08T17:14:40.566Z,9.48
2023-05-08T17:17:08.235Z,8.25
2023-05-08T17:19:35.378Z,8.52
2023-05-08T17:22:02.862Z,7.15
2023-05-08T17:24:30.875Z,7.30
2023-05-08T17:26:58.415Z,6.53
2023-05-08T17:29:25.480Z,7.25
2023-05-08T17:31:52.768Z,6.97
2023-05-08T17:34:20.189Z,7.28
2023-05-08T17:36:47.309Z,6.53
2023-05-08T17:39:14.943Z,6.85
2023-05-08T17:41:42.037Z,8.25
2023-05-08T17:44:09.071Z,7.55
2023-05-08T17:46:36.299Z,7.85
2023-05-08T17:49:03.566Z,6.93
2023-05-08T17:51:31.530Z,6.63
2023-05-08T17:53:58.637Z,8.52
2023-05-08T17:56:25.897Z,7.20
2023-05-08T17:58:53.552Z,6.60
2023-05-08T18:01:20.719Z,7.22
2023-05-08T18:03:48.539Z,7.32
2023-05-08T18:06:16.968Z,6.95
2023-05-08T18:08:44.886Z,7.47
2023-05-08T18:11:23.716Z,6.60
2023-05-08T18:13:52.245Z,7.38
2023-05-08T18:16:21.168Z,7.00
2023-05-08T18:18:49.469Z,7.95
2023-05-08T18:21:16.649Z,6.72
2023-05-08T18:23:43.804Z,7.38
2023-05-08T18:26:15.240Z,6.40
2023-05-08T18:28:42.472Z,8.25
2023-05-08T18:31:09.772Z,7.57
2023-05-08T18:33:37.337Z,6.32
2023-05-08T18:36:07.003Z,6.40
2023-05-08T18:38:34.898Z,7.28
2023-05-08T18:41:03.510Z,6.80
2023-05-08T18:43:30.680Z,6.60
2023-05-08T18:45:59.098Z,6.40
2023-05-08T18:48:26.587Z,7.38
2023-05-08T18:50:55.843Z,6.88
2023-05-08T18:53:22.918Z,6.80
2023-05-08T18:55:49.918Z,6.95
2023-05-08T18:58:17.087Z,6.40
2023-05-08T19:00:44.142Z,7.93
2023-05-08T19:03:11.263Z,6.70
2023-05-08T19:05:38.446Z,7.22
2023-05-08T19:08:05.640Z,6.25
2023-05-08T19:10:32.886Z,6.95
2023-05-08T19:13:02.241Z,6.97
2023-05-08T19:15:29.356Z,6.57
2023-05-08T19:17:56.586Z,7.00
2023-05-08T19:20:23.784Z,6.60
2023-05-08T19:22:50.785Z,6.40
2023-05-08T19:25:17.864Z,7.90
2023-05-08T19:27:45.021Z,6.47
2023-05-08T19:30:12.847Z,6.82
2023-05-08T19:32:40.053Z,7.32
2023-05-08T19:35:08.337Z,7.22
2023-05-08T19:37:36.420Z,6.35
2023-05-08T19:40:04.014Z,7.07
2023-05-08T19:42:31.107Z,7.65
2023-05-08T19:44:58.184Z,7.13
2023-05-08T19:47:25.270Z,6.68
2023-05-08T19:49:54.424Z,6.60
2023-05-08T19:52:21.598Z,7.22
2023-05-08T19:54:48.660Z,7.88
2023-05-08T19:57:15.783Z,6.72
2023-05-08T19:59:42.814Z,8.48
2023-05-08T20:02:09.925Z,6.25
2023-05-08T20:04:48.621Z,7.22
2023-05-08T20:07:24.051Z,6.57
2023-05-08T20:09:51.164Z,7.28
2023-05-08T20:12:18.400Z,8.68
2023-05-08T20:14:45.644Z,6.70
2023-05-08T20:17:12.758Z,7.00
2023-05-08T20:19:39.863Z,7.45
2023-05-08T20:22:06.928Z,8.07
2023-05-08T20:24:34.037Z,7.07
2023-05-08T20:27:01.147Z,6.70
2023-05-08T20:29:28.788Z,6.43
2023-05-08T20:31:55.905Z,8.70
2023-05-08T20:34:23.028Z,10.05
2023-05-08T20:36:50.156Z,7.43
2023-05-08T20:39:17.181Z,7.53
2023-05-08T20:41:44.281Z,7.50
2023-05-08T20:44:12.525Z,7.57
2023-05-08T20:46:40.892Z,7.78
2023-05-08T20:49:08.056Z,8.18
2023-05-08T20:51:36.430Z,8.10
2023-05-08T20:54:03.653Z,8.10
2023-05-08T20:56:30.743Z,7.88
2023-05-08T20:58:57.885Z,10.07
2023-05-08T21:01:25.016Z,7.53
2023-05-08T21:03:52.151Z,8.50
2023-05-08T21:06:19.308Z,9.98
2023-05-08T21:08:46.327Z,7.15
2023-05-08T21:11:13.466Z,10.52
2023-05-08T21:13:40.494Z,7.53
2023-05-08T21:16:08.435Z,7.72
2023-05-08T21:18:35.706Z,7.40
2023-05-08T21:21:02.964Z,7.72
2023-05-08T21:23:31.189Z,7.53
2023-05-08T21:25:58.226Z,8.93
2023-05-08T21:28:25.425Z,8.95
2023-05-08T21:30:52.498Z,7.72
2023-05-08T21:33:19.584Z,8.63
2023-05-08T21:35:47.924Z,8.10
2023-05-08T21:38:14.969Z,8.38
2023-05-08T21:40:42.017Z,8.27
2023-05-08T21:43:09.176Z,7.82
2023-05-08T21:45:36.303Z,8.00
2023-05-08T21:48:03.826Z,8.82
2023-05-08T21:50:31.139Z,8.02
2023-05-08T21:52:58.179Z,8.70
2023-05-08T21:55:25.294Z,8.02
2023-05-08T21:57:53.837Z,7.43
2023-05-08T22:00:21.297Z,7.20
2023-05-08T22:02:48.464Z,8.48
2023-05-08T22:05:15.835Z,9.23
2023-05-08T22:07:43.089Z,8.25
2023-05-08T22:10:11.721Z,7.88
2023-05-08T22:12:38.855Z,7.80
2023-05-08T22:15:14.913Z,8.68
2023-05-08T22:17:50.674Z,8.35
2023-05-08T22:20:18.228Z,8.05
2023-05-08T22:22:45.928Z,9.55
2023-05-08T22:25:13.315Z,7.95
2023-05-08T22:27:40.876Z,8.20
2023-05-08T22:30:08.253Z,7.78
2023-05-08T22:32:35.447Z,7.85
2023-05-08T22:35:02.877Z,8.48
2023-05-08T22:37:30.525Z,8.43
2023-05-08T22:39:57.568Z,8.18
2023-05-08T22:42:25.211Z,7.82
2023-05-08T22:44:52.363Z,8.35
2023-05-08T22:47:19.568Z,11.70
2023-05-08T22:49:48.057Z,8.23
2023-05-08T22:52:15.138Z,9.02
2023-05-08T22:54:42.112Z,7.53
2023-05-08T22:57:09.169Z,8.25
2023-05-08T22:59:36.733Z,8.32
2023-05-08T23:02:03.858Z,8.60
2023-05-08T23:04:30.963Z,8.00
2023-05-08T23:06:58.089Z,9.90
2023-05-08T23:09:26.005Z,8.80
2023-05-08T23:11:53.022Z,11.13
2023-05-08T23:14:20.074Z,8.30
2023-05-08T23:16:47.123Z,7.35
2023-05-08T23:19:14.173Z,8.30
2023-05-08T23:21:41.453Z,9.13
2023-05-08T23:24:08.645Z,7.88
2023-05-08T23:26:35.749Z,8.07
2023-05-08T23:29:02.781Z,9.52
2023-05-08T23:31:29.975Z,7.70
2023-05-08T23:33:57.124Z,8.05
2023-05-08T23:36:24.533Z,9.90
2023-05-08T23:38:51.588Z,8.23
2023-05-08T23:41:18.790Z,8.00
2023-05-08T23:43:45.835Z,7.25
2023-05-08T23:46:13.856Z,8.50
2023-05-08T23:48:41.048Z,8.07
2023-05-08T23:51:08.079Z,7.78
2023-05-08T23:53:35.111Z,8.13
2023-05-08T23:56:02.209Z,8.68
2023-05-08T23:58:29.207Z,8.10
